createdAt,value
2018-02-14T00:00:22.540Z,99.90
2018-02-14T00:02:50.167Z,99.90
2018-02-14T00:05:17.728Z,99.90
2018-02-14T00:07:45.284Z,99.90
2018-02-14T00:10:12.909Z,99.90
2018-02-14T00:12:40.472Z,99.90
2018-02-14T00:15:08.093Z,99.90
2018-02-14T00:17:35.652Z,99.90
2018-02-14T00:20:03.249Z,99.90
2018-02-14T00:22:30.808Z,99.90
2018-02-14T00:24:59.204Z,99.90
2018-02-14T00:27:27.576Z,99.90
2018-02-14T00:29:55.917Z,99.90
2018-02-14T00:32:23.521Z,99.90
2018-02-14T00:34:51.850Z,99.90
2018-02-14T00:37:19.449Z,99.90
2018-02-14T00:39:47.775Z,99.90
2018-02-14T00:42:15.379Z,99.90
2018-02-14T00:44:42.931Z,99.90
2018-02-14T00:47:10.488Z,99.90
2018-02-14T00:49:38.081Z,99.90
2018-02-14T00:52:06.454Z,99.90
2018-02-14T00:54:34.776Z,99.90
2018-02-14T00:57:04.781Z,99.90
2018-02-14T00:59:32.380Z,99.90
2018-02-14T01:01:59.940Z,99.90
2018-02-14T01:04:27.541Z,99.90
2018-02-14T01:06:55.103Z,99.90
2018-02-14T01:09:22.702Z,99.90
2018-02-14T01:11:50.309Z,99.90
2018-02-14T01:14:17.869Z,99.90
2018-02-14T01:16:46.261Z,99.90
2018-02-14T01:19:17.690Z,99.90
2018-02-14T01:21:50.890Z,99.90
2018-02-14T01:24:18.448Z,99.90
2018-02-14T01:26:46.004Z,99.90
2018-02-14T01:29:14.364Z,99.90
2018-02-14T01:31:42.732Z,99.90
2018-02-14T01:34:10.331Z,99.90
2018-02-14T01:36:37.939Z,99.90
2018-02-14T01:39:05.497Z,99.90
2018-02-14T01:41:33.056Z,99.90
2018-02-14T01:44:00.658Z,99.90
2018-02-14T01:46:28.988Z,99.90
2018-02-14T01:48:56.584Z,99.90
2018-02-14T01:51:24.913Z,99.90
2018-02-14T01:53:52.513Z,99.90
2018-02-14T01:56:21.319Z,99.90
2018-02-14T01:58:49.693Z,99.90
2018-02-14T02:01:17.275Z,99.90
2018-02-14T02:03:44.876Z,99.90
2018-02-14T02:06:12.435Z,99.90
2018-02-14T02:08:39.995Z,99.90
2018-02-14T02:11:07.598Z,99.90
2018-02-14T02:13:35.156Z,99.90
2018-02-14T02:16:02.760Z,99.90
2018-02-14T02:18:30.325Z,99.90
2018-02-14T02:20:57.886Z,99.90
2018-02-14T02:23:25.480Z,99.90
2018-02-14T02:25:53.801Z,99.90
2018-02-14T02:28:21.411Z,99.90
2018-02-14T02:30:49.748Z,99.90
2018-02-14T02:33:17.320Z,99.90
2018-02-14T02:35:44.917Z,99.90
2018-02-14T02:38:13.239Z,99.90
2018-02-14T02:40:41.796Z,99.90
2018-02-14T02:43:09.354Z,99.90
2018-02-14T02:45:36.930Z,99.90
2018-02-14T02:48:04.527Z,99.90
2018-02-14T02:50:32.111Z,99.90
2018-02-14T02:53:00.493Z,99.90
2018-02-14T02:55:28.840Z,99.90
2018-02-14T02:57:56.400Z,99.90
2018-02-14T03:00:24.004Z,99.90
2018-02-14T03:02:51.564Z,99.90
2018-02-14T03:05:19.119Z,99.90
2018-02-14T03:07:46.760Z,99.90
2018-02-14T03:10:15.149Z,99.90
2018-02-14T03:12:43.519Z,99.90
2018-02-14T03:15:11.848Z,99.90
2018-02-14T03:17:39.448Z,99.90
2018-02-14T03:20:07.784Z,99.90
2018-02-14T03:22:35.364Z,99.90
2018-02-14T03:25:02.962Z,99.90
2018-02-14T03:27:30.530Z,99.90
2018-02-14T03:29:58.123Z,99.90
2018-02-14T03:32:25.672Z,99.90
2018-02-14T03:34:53.279Z,99.90
2018-02-14T03:37:21.637Z,99.90
2018-02-14T03:39:49.243Z,99.90
2018-02-14T03:42:16.795Z,99.90
2018-02-14T03:44:44.396Z,99.90
2018-02-14T03:47:12.013Z,99.90
2018-02-14T03:49:40.349Z,99.90
2018-02-14T03:52:07.908Z,99.90
2018-02-14T03:54:35.504Z,99.90
2018-02-14T03:57:03.828Z,99.90
2018-02-14T03:59:31.420Z,99.90
2018-02-14T04:01:58.991Z,99.90
2018-02-14T04:04:27.372Z,99.90
2018-02-14T04:06:55.722Z,99.90
2018-02-14T04:09:23.324Z,99.90
2018-02-14T04:11:50.880Z,99.90
2018-02-14T04:14:19.194Z,99.90
2018-02-14T04:16:46.804Z,99.90
2018-02-14T04:19:15.128Z,99.90
2018-02-14T04:21:42.726Z,99.90
2018-02-14T04:24:10.321Z,99.90
2018-02-14T04:26:38.652Z,99.90
2018-02-14T04:29:06.247Z,99.90
2018-02-14T04:31:34.569Z,99.90
2018-02-14T04:34:02.194Z,99.90
2018-02-14T04:36:29.754Z,99.90
2018-02-14T04:38:57.315Z,99.90
2018-02-14T04:41:24.966Z,99.90
2018-02-14T04:43:52.527Z,99.90
2018-02-14T04:46:20.091Z,99.90
2018-02-14T04:48:47.706Z,99.90
2018-02-14T04:51:15.276Z,99.90
2018-02-14T04:53:42.835Z,99.90
2018-02-14T04:56:10.425Z,99.90
2018-02-14T04:58:37.985Z,99.90
2018-02-14T05:01:05.592Z,99.90
2018-02-14T05:03:33.152Z,99.90
2018-02-14T05:06:00.707Z,99.90
2018-02-14T05:08:28.300Z,99.90
2018-02-14T05:10:56.677Z,99.90
2018-02-14T05:13:25.023Z,99.90
2018-02-14T05:15:52.575Z,99.90
2018-02-14T05:18:20.197Z,99.90
2018-02-14T05:20:47.756Z,99.90
2018-02-14T05:23:15.308Z,99.90
2018-02-14T05:25:43.668Z,99.90
2018-02-14T05:28:12.004Z,99.90
2018-02-14T05:30:39.609Z,99.90
2018-02-14T05:33:07.972Z,99.90
2018-02-14T05:35:35.529Z,99.90
2018-02-14T05:38:03.089Z,99.90
2018-02-14T05:40:30.689Z,99.90
2018-02-14T05:42:58.254Z,99.90
2018-02-14T05:45:25.853Z,99.90
2018-02-14T05:47:53.452Z,99.90
2018-02-14T05:50:21.783Z,99.90
2018-02-14T05:52:49.375Z,99.90
2018-02-14T05:55:17.781Z,99.90
2018-02-14T05:57:45.352Z,99.90
2018-02-14T06:00:12.980Z,99.90
2018-02-14T06:02:41.347Z,99.90
2018-02-14T06:05:08.930Z,99.90
2018-02-14T06:07:37.321Z,99.90
2018-02-14T06:10:04.875Z,99.90
2018-02-14T06:12:32.499Z,99.90
2018-02-14T06:15:00.057Z,99.90
2018-02-14T06:17:29.991Z,99.90
2018-02-14T06:19:59.597Z,99.90
2018-02-14T06:22:27.961Z,99.90
2018-02-14T06:24:55.580Z,99.90
2018-02-14T06:27:23.137Z,99.90
2018-02-14T06:29:50.727Z,99.90
2018-02-14T06:32:18.337Z,99.90
2018-02-14T06:34:45.899Z,99.90
2018-02-14T06:37:13.462Z,99.90
2018-02-14T06:39:41.054Z,99.90
2018-02-14T06:42:08.607Z,99.90
2018-02-14T06:44:36.209Z,99.90
2018-02-14T06:47:04.588Z,99.90
2018-02-14T06:49:32.912Z,99.90
2018-02-14T06:52:00.471Z,99.90
2018-02-14T06:54:28.071Z,99.90
2018-02-14T06:56:55.654Z,99.90
2018-02-14T06:59:24.025Z,99.90
2018-02-14T07:01:52.389Z,99.90
2018-02-14T07:04:20.748Z,99.90
2018-02-14T07:06:48.349Z,99.90
2018-02-14T07:09:16.684Z,99.90
2018-02-14T07:11:44.284Z,99.90
2018-02-14T07:14:11.849Z,99.90
2018-02-14T07:16:39.446Z,99.90
2018-02-14T07:19:07.078Z,99.90
2018-02-14T07:21:34.644Z,99.90
2018-02-14T07:24:02.217Z,99.90
2018-02-14T07:26:29.816Z,99.90
2018-02-14T07:28:57.381Z,99.90
2018-02-14T07:31:25.741Z,99.90
2018-02-14T07:33:53.305Z,99.90
2018-02-14T07:36:21.463Z,99.90
2018-02-14T07:38:49.026Z,99.90
2018-02-14T07:41:17.348Z,99.90
2018-02-14T07:43:44.948Z,99.90
2018-02-14T07:46:12.511Z,99.90
2018-02-14T07:48:40.092Z,99.90
2018-02-14T07:51:07.656Z,99.90
2018-02-14T07:53:35.252Z,99.90
2018-02-14T07:56:02.813Z,99.90
2018-02-14T07:58:30.418Z,99.90
2018-02-14T08:00:58.033Z,99.90
2018-02-14T08:03:25.637Z,99.90
2018-02-14T08:05:53.995Z,99.90
2018-02-14T08:08:21.552Z,99.90
2018-02-14T08:10:49.121Z,99.90
2018-02-14T08:13:16.719Z,99.90
2018-02-14T08:15:45.049Z,99.90
2018-02-14T08:18:12.655Z,99.90
2018-02-14T08:20:40.214Z,99.90
2018-02-14T08:23:07.804Z,99.90
2018-02-14T08:25:35.396Z,99.90
2018-02-14T08:28:02.952Z,99.90
2018-02-14T08:30:30.554Z,99.90
2018-02-14T08:32:58.116Z,99.60
2018-02-14T08:35:26.449Z,99.40
2018-02-14T08:37:54.044Z,99.00
2018-02-14T08:40:21.687Z,98.90
2018-02-14T08:42:49.252Z,98.60
2018-02-14T08:45:16.882Z,98.60
2018-02-14T08:47:44.448Z,97.90
2018-02-14T08:50:12.027Z,97.50
2018-02-14T08:52:39.632Z,96.90
2018-02-14T08:55:07.194Z,97.00
2018-02-14T08:57:34.800Z,96.30
2018-02-14T09:00:02.400Z,96.20
2018-02-14T09:02:30.768Z,94.80
2018-02-14T09:04:59.092Z,94.30
2018-02-14T09:07:26.736Z,94.30
2018-02-14T09:09:54.315Z,93.60
2018-02-14T09:12:21.872Z,93.70
2018-02-14T09:14:49.480Z,93.10
2018-02-14T09:17:17.078Z,92.50
2018-02-14T09:19:44.676Z,92.50
2018-02-14T09:22:12.247Z,92.90
2018-02-14T09:24:39.893Z,93.00
2018-02-14T09:27:07.486Z,92.60
2018-02-14T09:29:35.911Z,91.60
2018-02-14T09:32:03.499Z,91.60
2018-02-14T09:34:31.067Z,90.90
2018-02-14T09:36:58.704Z,90.40
2018-02-14T09:39:26.277Z,90.00
2018-02-14T09:41:53.868Z,90.60
2018-02-14T09:44:22.226Z,89.40
2018-02-14T09:46:49.774Z,89.20
2018-02-14T09:49:17.370Z,89.10
2018-02-14T09:51:45.702Z,85.90
2018-02-14T09:54:13.307Z,85.90
2018-02-14T09:56:41.620Z,85.20
2018-02-14T09:59:09.171Z,85.20
2018-02-14T10:01:36.753Z,84.30
2018-02-14T10:04:04.353Z,83.70
2018-02-14T10:06:32.707Z,83.60
2018-02-14T10:09:00.349Z,83.60
2018-02-14T10:11:27.955Z,83.00
2018-02-14T10:13:56.309Z,83.20
2018-02-14T10:16:23.906Z,83.10
2018-02-14T10:18:51.460Z,82.40
2018-02-14T10:21:19.016Z,82.10
2018-02-14T10:23:46.712Z,82.40
2018-02-14T10:26:14.270Z,81.20
2018-02-14T10:28:41.956Z,81.00
2018-02-14T10:31:09.520Z,81.20
2018-02-14T10:33:37.116Z,79.70
2018-02-14T10:36:05.473Z,80.00
2018-02-14T10:38:33.020Z,80.10
2018-02-14T10:41:00.608Z,79.40
2018-02-14T10:43:28.981Z,77.50
2018-02-14T10:45:57.330Z,75.40
2018-02-14T10:48:24.882Z,75.40
2018-02-14T10:50:52.480Z,76.20
2018-02-14T10:53:20.795Z,75.40
2018-02-14T10:55:48.381Z,75.40
2018-02-14T10:58:16.728Z,73.50
2018-02-14T11:00:49.991Z,73.50
2018-02-14T11:03:23.961Z,74.70
2018-02-14T11:05:57.196Z,74.60
2018-02-14T11:08:24.803Z,75.30
2018-02-14T11:10:52.351Z,74.10
2018-02-14T11:13:19.941Z,73.50
2018-02-14T11:15:47.512Z,71.80
2018-02-14T11:18:18.085Z,70.80
2018-02-14T11:20:45.627Z,70.60
2018-02-14T11:23:13.177Z,69.00
2018-02-14T11:25:41.533Z,67.60
2018-02-14T11:28:09.141Z,67.60
2018-02-14T11:30:36.713Z,68.10
2018-02-14T11:33:06.846Z,67.80
2018-02-14T11:35:36.363Z,67.10
2018-02-14T11:38:03.991Z,67.50
2018-02-14T11:40:31.583Z,69.30
2018-02-14T11:42:59.134Z,69.00
2018-02-14T11:45:27.226Z,67.90
2018-02-14T11:47:55.643Z,67.80
2018-02-14T11:50:23.252Z,67.80
2018-02-14T11:52:51.910Z,64.60
2018-02-14T11:55:19.465Z,64.60
2018-02-14T11:57:47.056Z,64.00
2018-02-14T12:00:14.604Z,65.70
2018-02-14T12:02:42.247Z,66.20
2018-02-14T12:05:09.862Z,65.20
2018-02-14T12:07:38.240Z,63.70
2018-02-14T12:10:06.619Z,63.90
2018-02-14T12:12:34.960Z,65.30
2018-02-14T12:15:02.512Z,65.20
2018-02-14T12:17:30.232Z,65.20
2018-02-14T12:19:57.820Z,66.00
2018-02-14T12:22:25.402Z,65.20
2018-02-14T12:24:53.033Z,64.90
2018-02-14T12:27:20.580Z,65.10
2018-02-14T12:29:48.142Z,65.70
2018-02-14T12:32:15.728Z,64.60
2018-02-14T12:34:43.273Z,64.80
2018-02-14T12:37:10.856Z,64.90
2018-02-14T12:39:38.425Z,65.60
2018-02-14T12:42:06.016Z,64.50
2018-02-14T12:44:34.328Z,63.20
2018-02-14T12:47:01.911Z,63.20
2018-02-14T12:49:29.495Z,63.60
2018-02-14T12:51:57.068Z,62.60
2018-02-14T12:54:25.423Z,62.20
2018-02-14T12:56:52.969Z,62.20
2018-02-14T12:59:20.564Z,62.10
2018-02-14T13:01:48.866Z,64.30
2018-02-14T13:04:16.460Z,64.30
2018-02-14T13:06:44.004Z,63.10
2018-02-14T13:09:11.592Z,63.90
2018-02-14T13:11:39.978Z,64.20
2018-02-14T13:14:08.295Z,62.30
2018-02-14T13:16:35.892Z,61.70
2018-02-14T13:19:03.502Z,61.60
2018-02-14T13:21:31.060Z,62.50
2018-02-14T13:23:58.608Z,62.70
2018-02-14T13:26:26.963Z,63.20
2018-02-14T13:28:54.516Z,63.10
2018-02-14T13:31:22.114Z,62.20
2018-02-14T13:33:49.670Z,60.40
2018-02-14T13:36:18.025Z,59.00
2018-02-14T13:38:45.626Z,59.00
2018-02-14T13:41:13.183Z,59.50
2018-02-14T13:43:40.759Z,60.00
2018-02-14T13:46:08.350Z,61.30
2018-02-14T13:48:35.912Z,59.90
2018-02-14T13:51:04.288Z,59.90
2018-02-14T13:53:31.835Z,59.90
2018-02-14T13:56:01.045Z,59.90
2018-02-14T13:58:28.597Z,60.60
2018-02-14T14:00:56.146Z,61.80
2018-02-14T14:03:23.728Z,61.40
2018-02-14T14:05:51.478Z,60.60
2018-02-14T14:08:20.802Z,61.90
2018-02-14T14:10:49.121Z,61.40
2018-02-14T14:13:16.892Z,61.40
2018-02-14T14:15:44.511Z,62.10
2018-02-14T14:18:12.952Z,62.10
2018-02-14T14:20:41.572Z,62.20
2018-02-14T14:23:09.153Z,62.10
2018-02-14T14:25:36.763Z,61.50
2018-02-14T14:28:04.309Z,62.00
2018-02-14T14:30:31.858Z,63.40
2018-02-14T14:32:59.451Z,63.40
2018-02-14T14:35:27.052Z,61.40
2018-02-14T14:37:54.605Z,62.80
2018-02-14T14:40:22.209Z,62.00
2018-02-14T14:42:49.808Z,61.70
2018-02-14T14:45:18.157Z,61.80
2018-02-14T14:47:45.706Z,61.70
2018-02-14T14:50:13.369Z,60.00
2018-02-14T14:52:40.913Z,60.00
2018-02-14T14:55:08.457Z,59.90
2018-02-14T14:57:36.048Z,59.90
2018-02-14T15:00:04.072Z,61.50
2018-02-14T15:02:31.765Z,61.80
2018-02-14T15:05:01.111Z,62.50
2018-02-14T15:07:29.505Z,63.90
2018-02-14T15:09:57.061Z,63.80
2018-02-14T15:12:24.646Z,63.60
2018-02-14T15:14:52.270Z,63.30
2018-02-14T15:17:19.884Z,63.00
2018-02-14T15:19:47.469Z,62.60
2018-02-14T15:22:15.265Z,63.60
2018-02-14T15:24:43.045Z,62.80
2018-02-14T15:27:10.707Z,61.70
2018-02-14T15:29:38.265Z,61.70
2018-02-14T15:32:06.252Z,61.80
2018-02-14T15:34:33.956Z,61.50
2018-02-14T15:37:01.771Z,61.60
2018-02-14T15:39:29.425Z,61.70
2018-02-14T15:41:57.012Z,61.30
2018-02-14T15:44:24.564Z,60.70
2018-02-14T15:46:52.161Z,61.90
2018-02-14T15:49:19.780Z,62.00
2018-02-14T15:51:47.332Z,61.90
2018-02-14T15:54:14.887Z,62.60
2018-02-14T15:56:42.483Z,62.90
2018-02-14T15:59:10.038Z,63.40
2018-02-14T16:01:37.645Z,64.40
2018-02-14T16:04:05.195Z,64.40
2018-02-14T16:06:33.456Z,64.70
2018-02-14T16:09:01.776Z,65.10
2018-02-14T16:11:29.341Z,65.10
2018-02-14T16:13:56.985Z,65.80
2018-02-14T16:16:24.524Z,66.00
2018-02-14T16:18:52.871Z,65.30
2018-02-14T16:21:20.462Z,65.90
2018-02-14T16:23:48.823Z,65.20
2018-02-14T16:26:17.145Z,65.60
2018-02-14T16:28:44.754Z,65.50
2018-02-14T16:31:12.309Z,65.30
2018-02-14T16:33:39.870Z,65.50
2018-02-14T16:36:07.469Z,66.50
2018-02-14T16:38:35.023Z,66.70
2018-02-14T16:41:02.635Z,66.70
2018-02-14T16:43:30.214Z,66.70
2018-02-14T16:45:58.590Z,68.10
2018-02-14T16:48:26.922Z,68.60
2018-02-14T16:50:54.521Z,68.50
2018-02-14T16:53:22.081Z,68.80
2018-02-14T16:55:49.688Z,69.40
2018-02-14T16:58:17.310Z,70.00
2018-02-14T17:00:45.690Z,70.70
2018-02-14T17:03:14.027Z,70.70
2018-02-14T17:05:41.634Z,70.60
2018-02-14T17:08:09.982Z,69.20
2018-02-14T17:10:37.546Z,69.20
2018-02-14T17:13:05.155Z,69.40
2018-02-14T17:15:32.723Z,69.20
2018-02-14T17:18:00.330Z,69.20
2018-02-14T17:20:27.907Z,69.50
2018-02-14T17:22:56.273Z,69.90
2018-02-14T17:25:24.673Z,69.40
2018-02-14T17:27:53.006Z,69.90
2018-02-14T17:30:20.622Z,69.90
2018-02-14T17:32:48.200Z,69.40
2018-02-14T17:35:15.816Z,69.60
2018-02-14T17:37:44.155Z,69.50
2018-02-14T17:40:11.726Z,69.40
2018-02-14T17:42:39.346Z,69.70
2018-02-14T17:45:06.946Z,69.70
2018-02-14T17:47:34.555Z,69.50
2018-02-14T17:50:02.127Z,69.70
2018-02-14T17:52:29.695Z,69.80
2018-02-14T17:54:57.303Z,69.50
2018-02-14T17:57:24.866Z,69.80
2018-02-14T17:59:53.255Z,70.10
2018-02-14T18:02:21.587Z,69.90
2018-02-14T18:04:49.216Z,69.90
2018-02-14T18:07:16.781Z,70.10
2018-02-14T18:09:44.390Z,70.10
2018-02-14T18:12:11.994Z,69.90
2018-02-14T18:14:39.555Z,70.10
2018-02-14T18:17:07.168Z,69.80
2018-02-14T18:19:34.775Z,69.40
2018-02-14T18:22:02.402Z,69.60
2018-02-14T18:24:30.735Z,69.10
2018-02-14T18:26:58.314Z,69.10
2018-02-14T18:29:25.935Z,69.10
2018-02-14T18:31:53.493Z,69.40
2018-02-14T18:34:21.109Z,69.10
2018-02-14T18:36:48.666Z,69.10
2018-02-14T18:39:17.058Z,68.40
2018-02-14T18:41:45.385Z,68.20
2018-02-14T18:44:12.983Z,68.10
2018-02-14T18:46:41.373Z,68.50
2018-02-14T18:49:09.739Z,67.60
2018-02-14T18:51:37.299Z,67.50
2018-02-14T18:54:05.676Z,68.50
2018-02-14T18:56:33.313Z,68.50
2018-02-14T18:59:00.934Z,68.70
2018-02-14T19:01:28.497Z,68.70
2018-02-14T19:03:56.111Z,69.00
2018-02-14T19:06:23.675Z,68.00
2018-02-14T19:08:51.275Z,68.50
2018-02-14T19:11:18.887Z,68.20
2018-02-14T19:13:46.454Z,67.60
2018-02-14T19:16:14.055Z,67.30
2018-02-14T19:18:41.673Z,67.00
2018-02-14T19:21:09.242Z,67.30
2018-02-14T19:23:37.587Z,66.90
2018-02-14T19:26:05.205Z,66.80
2018-02-14T19:28:32.938Z,68.00
2018-02-14T19:31:00.537Z,66.50
2018-02-14T19:33:28.144Z,67.30
2018-02-14T19:35:55.715Z,67.00
2018-02-14T19:38:24.105Z,67.40
2018-02-14T19:40:52.433Z,67.10
2018-02-14T19:43:20.066Z,67.10
2018-02-14T19:45:47.630Z,67.50
2018-02-14T19:48:15.206Z,67.20
2018-02-14T19:50:42.805Z,67.00
2018-02-14T19:53:10.461Z,67.10
2018-02-14T19:55:38.038Z,67.30
2018-02-14T19:58:06.402Z,67.00
2018-02-14T20:00:33.979Z,67.00
2018-02-14T20:03:01.601Z,66.80
2018-02-14T20:05:29.214Z,67.70
2018-02-14T20:07:56.779Z,67.70
2018-02-14T20:10:24.386Z,68.20
2018-02-14T20:12:51.996Z,67.70
2018-02-14T20:15:19.584Z,67.40
2018-02-14T20:17:47.235Z,67.60
2018-02-14T20:20:14.842Z,67.80
2018-02-14T20:22:43.307Z,68.00
2018-02-14T20:25:10.943Z,67.00
2018-02-14T20:27:38.511Z,67.70
2018-02-14T20:30:06.131Z,67.70
2018-02-14T20:32:33.709Z,67.70
2018-02-14T20:35:01.314Z,67.70
2018-02-14T20:37:28.902Z,67.50
2018-02-14T20:39:57.316Z,67.30
2018-02-14T20:42:24.894Z,67.30
2018-02-14T20:44:52.499Z,67.60
2018-02-14T20:47:20.852Z,67.40
2018-02-14T20:49:48.461Z,68.20
2018-02-14T20:52:16.032Z,66.90
2018-02-14T20:54:43.654Z,67.10
2018-02-14T20:57:11.988Z,66.60
2018-02-14T20:59:39.618Z,66.50
2018-02-14T21:02:07.195Z,66.70
2018-02-14T21:04:34.817Z,67.00
2018-02-14T21:07:03.163Z,66.10
2018-02-14T21:09:30.730Z,66.10
2018-02-14T21:11:58.334Z,66.70
2018-02-14T21:14:25.907Z,67.00
2018-02-14T21:16:53.527Z,66.00
2018-02-14T21:19:21.871Z,67.40
2018-02-14T21:21:49.477Z,67.40
2018-02-14T21:24:17.044Z,67.30
2018-02-14T21:26:44.660Z,67.20
2018-02-14T21:29:12.241Z,67.30
2018-02-14T21:31:40.574Z,67.90
2018-02-14T21:34:08.253Z,67.90
2018-02-14T21:36:35.866Z,67.80
2018-02-14T21:39:03.436Z,67.80
2018-02-14T21:41:31.074Z,68.20
2018-02-14T21:44:01.147Z,68.50
2018-02-14T21:46:28.815Z,69.00
2018-02-14T21:48:56.421Z,68.60
2018-02-14T21:51:24.310Z,68.90
2018-02-14T21:53:51.949Z,68.50
2018-02-14T21:56:19.531Z,69.40
2018-02-14T21:58:48.114Z,68.90
2018-02-14T22:01:16.120Z,69.10
2018-02-14T22:03:43.774Z,69.80
2018-02-14T22:06:11.618Z,69.80
2018-02-14T22:08:39.418Z,70.20
2018-02-14T22:11:07.057Z,70.00
2018-02-14T22:13:36.731Z,69.10
2018-02-14T22:16:04.598Z,70.10
2018-02-14T22:18:32.251Z,70.10
2018-02-14T22:21:05.382Z,70.30
2018-02-14T22:23:33.008Z,70.40
2018-02-14T22:26:00.578Z,70.10
2018-02-14T22:28:28.445Z,70.00
2018-02-14T22:30:56.014Z,69.70
2018-02-14T22:33:23.618Z,69.60
2018-02-14T22:35:53.326Z,70.30
2018-02-14T22:38:20.921Z,70.10
2018-02-14T22:40:48.528Z,69.50
2018-02-14T22:43:16.134Z,70.20
2018-02-14T22:45:43.871Z,70.20
2018-02-14T22:48:11.952Z,69.40
2018-02-14T22:50:39.931Z,69.80
2018-02-14T22:53:07.630Z,69.70
2018-02-14T22:55:35.205Z,69.40
2018-02-14T22:58:02.976Z,69.00
2018-02-14T23:00:31.683Z,68.80
2018-02-14T23:03:00.026Z,68.80
2018-02-14T23:05:27.635Z,68.80
2018-02-14T23:07:55.304Z,68.20
2018-02-14T23:10:22.911Z,68.70
2018-02-14T23:12:50.493Z,68.80
2018-02-14T23:15:18.899Z,67.90
2018-02-14T23:17:47.669Z,67.80
2018-02-14T23:20:15.409Z,67.70
2018-02-14T23:22:43.320Z,67.80
2018-02-14T23:25:10.926Z,67.80
2018-02-14T23:27:38.494Z,67.90
2018-02-14T23:30:06.107Z,66.90
2018-02-14T23:32:33.694Z,67.50
2018-02-14T23:35:01.303Z,67.50
2018-02-14T23:37:29.646Z,67.40
2018-02-14T23:39:57.290Z,67.40
2018-02-14T23:42:24.865Z,68.10
2018-02-14T23:44:52.520Z,67.30
2018-02-14T23:47:20.085Z,67.40
2018-02-14T23:49:47.660Z,66.90
2018-02-14T23:52:15.274Z,66.80
2018-02-14T23:54:42.874Z,66.70
2018-02-14T23:57:10.488Z,65.90
2018-02-14T23:59:38.108Z,66.30
